createdAt,value
2019-06-08T00:00:49.344Z,21.50
2019-06-08T00:03:38.357Z,21.50
2019-06-08T00:06:26.990Z,21.50
2019-06-08T00:09:15.286Z,21.50
2019-06-08T00:12:04.076Z,21.50
2019-06-08T00:14:52.434Z,21.50
2019-06-08T00:17:41.236Z,21.50
2019-06-08T00:20:29.541Z,21.50
2019-06-08T00:23:17.740Z,21.50
2019-06-08T00:26:05.956Z,21.40
2019-06-08T00:28:54.351Z,21.40
2019-06-08T00:31:43.028Z,21.50
2019-06-08T00:34:31.857Z,21.40
2019-06-08T00:37:20.824Z,21.40
2019-06-08T00:40:10.815Z,21.40
2019-06-08T00:42:59.089Z,21.40
2019-06-08T00:45:47.950Z,21.40
2019-06-08T00:48:36.420Z,21.40
2019-06-08T00:51:25.536Z,21.40
2019-06-08T00:54:14.569Z,21.40
2019-06-08T00:57:03.202Z,21.40
2019-06-08T00:59:51.791Z,21.40
2019-06-08T01:02:40.321Z,21.30
2019-06-08T01:05:30.175Z,21.40
2019-06-08T01:08:20.283Z,21.30
2019-06-08T01:11:09.939Z,21.40
2019-06-08T01:13:58.533Z,21.30
2019-06-08T01:16:47.046Z,21.30
2019-06-08T01:19:35.499Z,21.30
2019-06-08T01:22:25.441Z,21.30
2019-06-08T01:25:15.102Z,21.30
2019-06-08T01:28:04.093Z,21.30
2019-06-08T01:30:52.894Z,21.30
2019-06-08T01:33:41.621Z,21.30
2019-06-08T01:36:31.104Z,21.30
2019-06-08T01:39:21.126Z,21.20
2019-06-08T01:42:09.989Z,21.20
2019-06-08T01:44:58.291Z,21.20
2019-06-08T01:47:47.044Z,21.20
2019-06-08T01:50:35.568Z,21.20
2019-06-08T01:53:24.950Z,21.20
2019-06-08T01:56:13.494Z,21.20
2019-06-08T01:59:01.943Z,21.20
2019-06-08T02:01:50.691Z,21.20
2019-06-08T02:04:39.010Z,21.10
2019-06-08T02:07:28.315Z,21.20
2019-06-08T02:10:18.460Z,21.10
2019-06-08T02:13:08.796Z,21.20
2019-06-08T02:15:57.512Z,21.10
2019-06-08T02:18:50.957Z,21.10
2019-06-08T02:21:36.888Z,21.10
2019-06-08T02:24:25.152Z,21.10
2019-06-08T02:27:13.678Z,21.10
2019-06-08T02:30:02.947Z,21.10
2019-06-08T02:32:51.592Z,21.10
2019-06-08T02:35:41.791Z,21.10
2019-06-08T02:38:32.078Z,21.10
2019-06-08T02:41:21.554Z,21.10
2019-06-08T02:44:09.903Z,21.10
2019-06-08T02:46:58.851Z,21.10
2019-06-08T02:49:47.854Z,21.10
2019-06-08T02:52:38.843Z,21.00
2019-06-08T02:55:30.556Z,21.00
2019-06-08T02:58:20.417Z,21.00
2019-06-08T03:01:10.068Z,21.00
2019-06-08T03:03:59.505Z,21.00
2019-06-08T03:06:50.844Z,21.00
2019-06-08T03:09:41.107Z,21.00
2019-06-08T03:12:31.533Z,21.00
2019-06-08T03:15:33.774Z,21.00
2019-06-08T03:18:20.390Z,21.00
2019-06-08T03:21:08.625Z,21.00
2019-06-08T03:23:57.182Z,21.00
2019-06-08T03:26:45.503Z,21.00
2019-06-08T03:29:34.933Z,20.90
2019-06-08T03:32:23.953Z,20.90
2019-06-08T03:35:12.297Z,20.90
2019-06-08T03:38:00.583Z,20.90
2019-06-08T03:40:49.244Z,20.90
2019-06-08T03:43:40.134Z,20.90
2019-06-08T03:46:28.062Z,20.90
2019-06-08T03:49:16.270Z,20.90
2019-06-08T03:52:05.594Z,20.90
2019-06-08T03:54:54.163Z,20.90
2019-06-08T03:57:44.091Z,20.90
2019-06-08T04:00:32.227Z,20.80
2019-06-08T04:03:20.365Z,20.80
2019-06-08T04:06:09.096Z,20.80
2019-06-08T04:08:57.616Z,20.80
2019-06-08T04:11:46.748Z,20.80
2019-06-08T04:14:37.858Z,20.80
2019-06-08T04:17:27.522Z,20.80
2019-06-08T04:20:16.491Z,20.80
2019-06-08T04:23:04.969Z,20.80
2019-06-08T04:25:53.350Z,20.80
2019-06-08T04:28:42.523Z,20.80
2019-06-08T04:31:31.474Z,20.80
2019-06-08T04:34:20.622Z,20.80
2019-06-08T04:37:09.110Z,20.70
2019-06-08T04:39:57.346Z,20.80
2019-06-08T04:42:48.634Z,20.80
2019-06-08T04:45:35.845Z,20.70
2019-06-08T04:48:24.151Z,20.70
2019-06-08T04:51:12.386Z,20.70
2019-06-08T04:54:01.051Z,20.70
2019-06-08T04:56:49.961Z,20.70
2019-06-08T04:59:39.096Z,20.70
2019-06-08T05:02:28.793Z,20.70
2019-06-08T05:05:17.830Z,20.70
2019-06-08T05:08:06.289Z,20.70
2019-06-08T05:10:54.650Z,20.70
2019-06-08T05:13:45.253Z,20.70
2019-06-08T05:16:33.790Z,20.70
2019-06-08T05:19:22.099Z,20.70
2019-06-08T05:22:10.898Z,20.70
2019-06-08T05:24:59.091Z,20.70
2019-06-08T05:27:47.517Z,20.70
2019-06-08T05:30:35.756Z,20.70
2019-06-08T05:33:24.102Z,20.70
2019-06-08T05:36:12.730Z,20.70
2019-06-08T05:39:01.060Z,20.70
2019-06-08T05:41:49.849Z,20.70
2019-06-08T05:44:39.613Z,20.70
2019-06-08T05:47:28.211Z,20.70
2019-06-08T05:50:17.107Z,20.70
2019-06-08T05:53:05.594Z,20.80
2019-06-08T05:55:53.675Z,20.80
2019-06-08T05:58:42.460Z,20.80
2019-06-08T06:01:31.033Z,20.80
2019-06-08T06:04:20.588Z,20.90
2019-06-08T06:07:09.048Z,20.90
2019-06-08T06:09:57.469Z,20.90
2019-06-08T06:12:46.925Z,20.90
2019-06-08T06:15:36.554Z,20.90
2019-06-08T06:18:25.535Z,20.90
2019-06-08T06:21:13.862Z,20.90
2019-06-08T06:24:02.443Z,20.90
2019-06-08T06:26:51.668Z,21.10
2019-06-08T06:29:41.397Z,21.10
2019-06-08T06:32:30.552Z,21.10
2019-06-08T06:35:19.307Z,21.20
2019-06-08T06:38:08.117Z,21.30
2019-06-08T06:40:56.342Z,21.50
2019-06-08T06:43:45.830Z,21.60
2019-06-08T06:46:34.492Z,21.70
2019-06-08T06:49:23.181Z,21.80
2019-06-08T06:52:11.593Z,21.90
2019-06-08T06:55:00.018Z,21.90
2019-06-08T06:57:49.254Z,21.90
2019-06-08T07:00:37.455Z,21.80
2019-06-08T07:03:26.097Z,21.80
2019-06-08T07:06:16.040Z,21.80
2019-06-08T07:09:05.959Z,21.80
2019-06-08T07:11:56.179Z,21.70
2019-06-08T07:14:47.012Z,21.70
2019-06-08T07:17:35.669Z,21.80
2019-06-08T07:20:24.573Z,21.80
2019-06-08T07:23:13.019Z,21.80
2019-06-08T07:26:01.371Z,21.80
2019-06-08T07:28:51.807Z,21.70
2019-06-08T07:31:39.925Z,21.70
2019-06-08T07:34:29.020Z,21.80
2019-06-08T07:37:17.381Z,21.80
2019-06-08T07:40:07.248Z,21.80
2019-06-08T07:42:56.711Z,21.80
2019-06-08T07:45:45.490Z,21.90
2019-06-08T07:48:33.651Z,21.80
2019-06-08T07:51:22.176Z,21.80
2019-06-08T07:54:10.677Z,21.90
2019-06-08T07:57:00.747Z,21.90
2019-06-08T07:59:50.299Z,21.90
2019-06-08T08:02:38.926Z,21.90
2019-06-08T08:05:27.063Z,22.00
2019-06-08T08:08:15.554Z,21.90
2019-06-08T08:11:03.945Z,21.90
2019-06-08T08:13:53.199Z,21.90
2019-06-08T08:16:41.866Z,22.00
2019-06-08T08:19:30.402Z,22.10
2019-06-08T08:22:25.858Z,22.20
2019-06-08T08:25:12.176Z,22.20
2019-06-08T08:28:01.078Z,22.30
2019-06-08T08:30:50.633Z,22.30
2019-06-08T08:33:39.725Z,22.40
2019-06-08T08:36:29.419Z,22.40
2019-06-08T08:39:18.069Z,22.40
2019-06-08T08:42:08.433Z,22.50
2019-06-08T08:45:02.708Z,22.50
2019-06-08T08:47:48.573Z,22.50
2019-06-08T08:50:38.298Z,22.50
2019-06-08T08:53:27.986Z,22.50
2019-06-08T08:56:18.116Z,22.50
2019-06-08T08:59:01.666Z,22.50
2019-06-08T09:01:33.018Z,22.50
2019-06-08T09:04:05.124Z,22.40
2019-06-08T09:06:38.042Z,22.40
2019-06-08T09:09:28.836Z,22.40
2019-06-08T09:12:18.243Z,22.30
2019-06-08T09:15:08.599Z,22.30
2019-06-08T09:17:59.811Z,22.30
2019-06-08T09:20:47.863Z,22.30
2019-06-08T09:23:37.787Z,22.30
2019-06-08T09:27:00.866Z,22.30
2019-06-08T09:29:48.184Z,22.30
2019-06-08T09:32:38.207Z,22.30
2019-06-08T09:35:28.013Z,22.30
2019-06-08T09:38:18.594Z,22.30
2019-06-08T09:41:08.992Z,22.30
2019-06-08T09:44:00.177Z,22.20
2019-06-08T09:46:48.235Z,22.20
2019-06-08T09:49:37.825Z,22.20
2019-06-08T09:52:28.383Z,22.20
2019-06-08T09:55:18.091Z,22.20
2019-06-08T09:58:11.221Z,22.10
2019-06-08T10:00:59.517Z,22.10
2019-06-08T10:03:48.220Z,22.10
2019-06-08T10:06:37.788Z,22.00
2019-06-08T10:09:28.385Z,22.00
2019-06-08T10:12:18.255Z,22.00
2019-06-08T10:15:08.326Z,22.00
2019-06-08T10:17:56.900Z,22.00
2019-06-08T10:20:48.000Z,22.00
2019-06-08T10:23:38.572Z,22.00
2019-06-08T10:26:28.039Z,22.00
2019-06-08T10:29:18.463Z,22.00
2019-06-08T10:32:08.906Z,22.00
2019-06-08T10:34:59.989Z,21.90
2019-06-08T10:37:50.836Z,21.90
2019-06-08T10:40:39.873Z,21.90
2019-06-08T10:43:28.848Z,21.90
2019-06-08T10:46:20.730Z,21.90
2019-06-08T10:49:12.680Z,21.90
2019-06-08T10:52:01.179Z,21.90
2019-06-08T10:54:47.545Z,21.90
2019-06-08T10:57:37.471Z,21.90
2019-06-08T11:00:28.223Z,21.90
2019-06-08T11:03:16.615Z,21.90
2019-06-08T11:06:07.547Z,21.90
2019-06-08T11:08:55.392Z,21.90
2019-06-08T11:11:43.789Z,21.90
2019-06-08T11:14:32.313Z,21.90
2019-06-08T11:17:20.885Z,21.90
2019-06-08T11:20:11.910Z,21.90
2019-06-08T11:23:02.065Z,21.90
2019-06-08T11:25:50.397Z,21.90
2019-06-08T11:28:39.481Z,21.80
2019-06-08T11:31:31.235Z,21.80
2019-06-08T11:34:18.603Z,21.80
2019-06-08T11:37:11.427Z,21.80
2019-06-08T11:39:57.819Z,21.80
2019-06-08T11:42:48.474Z,21.80
2019-06-08T11:45:38.031Z,21.70
2019-06-08T11:48:28.499Z,21.70
2019-06-08T11:51:16.600Z,21.70
2019-06-08T11:54:12.846Z,21.70
2019-06-08T11:56:57.551Z,21.70
2019-06-08T11:59:48.489Z,21.70
2019-06-08T12:02:38.790Z,21.70
2019-06-08T12:05:27.830Z,21.70
2019-06-08T12:08:17.579Z,21.60
2019-06-08T12:11:11.589Z,21.60
2019-06-08T12:13:58.471Z,21.60
2019-06-08T12:16:48.581Z,21.60
2019-06-08T12:19:37.738Z,21.60
2019-06-08T12:22:26.787Z,21.60
2019-06-08T12:25:15.218Z,21.60
2019-06-08T12:28:04.583Z,21.60
2019-06-08T12:30:53.647Z,21.60
2019-06-08T12:33:41.813Z,21.60
2019-06-08T12:36:30.716Z,21.60
2019-06-08T12:39:21.486Z,21.60
2019-06-08T12:42:15.630Z,21.60
2019-06-08T12:45:00.456Z,21.60
2019-06-08T12:47:48.798Z,21.60
2019-06-08T12:50:38.637Z,21.60
2019-06-08T12:53:28.262Z,21.60
2019-06-08T12:56:22.196Z,21.60
2019-06-08T12:59:13.342Z,21.60
2019-06-08T13:01:58.935Z,21.60
2019-06-08T13:04:48.095Z,21.60
2019-06-08T13:07:38.583Z,21.60
2019-06-08T13:10:27.840Z,21.60
2019-06-08T13:13:19.977Z,21.70
2019-06-08T13:16:06.894Z,21.60
2019-06-08T13:18:55.222Z,21.70
2019-06-08T13:21:43.917Z,21.60
2019-06-08T13:24:32.111Z,21.60
2019-06-08T13:27:23.047Z,21.60
2019-06-08T13:30:15.916Z,21.60
2019-06-08T13:33:02.496Z,21.60
2019-06-08T13:35:50.895Z,21.60
2019-06-08T13:38:39.500Z,21.50
2019-06-08T13:41:29.972Z,21.60
2019-06-08T13:44:19.747Z,21.50
2019-06-08T13:47:12.239Z,21.50
2019-06-08T13:49:58.821Z,21.50
2019-06-08T13:52:48.400Z,21.50
2019-06-08T13:55:51.693Z,21.50
2019-06-08T13:58:33.146Z,21.50
2019-06-08T14:01:17.653Z,21.50
2019-06-08T14:04:09.013Z,21.50
2019-06-08T14:06:58.135Z,21.50
2019-06-08T14:09:48.834Z,21.50
2019-06-08T14:12:38.526Z,21.50
2019-06-08T14:15:28.247Z,21.50
2019-06-08T14:18:21.253Z,21.50
2019-06-08T14:21:08.435Z,21.50
2019-06-08T14:23:58.600Z,21.50
2019-06-08T14:26:48.551Z,21.50
2019-06-08T14:29:37.017Z,21.50
2019-06-08T14:32:26.582Z,21.50
2019-06-08T14:35:15.281Z,21.50
2019-06-08T14:38:04.082Z,21.50
2019-06-08T14:40:52.347Z,21.50
2019-06-08T14:43:40.931Z,21.50
2019-06-08T14:46:30.376Z,21.50
2019-06-08T14:49:26.515Z,21.50
2019-06-08T14:52:10.837Z,21.50
2019-06-08T14:54:59.745Z,21.50
2019-06-08T14:57:48.265Z,21.50
2019-06-08T15:00:38.059Z,21.50
2019-06-08T15:03:27.286Z,21.50
2019-06-08T15:06:17.845Z,21.50
2019-06-08T15:09:08.645Z,21.50
2019-06-08T15:11:58.191Z,21.50
2019-06-08T15:14:47.747Z,21.50
2019-06-08T15:17:37.950Z,21.60
2019-06-08T15:20:28.317Z,21.60
2019-06-08T15:23:19.721Z,21.60
2019-06-08T15:26:20.684Z,21.60
2019-06-08T15:28:58.699Z,21.60
2019-06-08T15:31:48.220Z,21.50
2019-06-08T15:34:38.241Z,21.60
2019-06-08T15:37:28.144Z,21.50
2019-06-08T15:40:18.356Z,21.50
2019-06-08T15:43:08.658Z,21.50
2019-06-08T15:45:59.121Z,21.50
2019-06-08T15:48:48.592Z,21.50
2019-06-08T15:51:38.250Z,21.50
2019-06-08T15:54:29.087Z,21.50
2019-06-08T15:57:18.027Z,21.50
2019-06-08T16:00:10.210Z,21.50
2019-06-08T16:02:59.193Z,21.50
2019-06-08T16:05:48.426Z,21.50
2019-06-08T16:08:38.054Z,21.50
2019-06-08T16:11:26.540Z,21.50
2019-06-08T16:14:15.150Z,21.50
2019-06-08T16:17:03.486Z,21.50
2019-06-08T16:19:53.208Z,21.50
2019-06-08T16:22:41.734Z,21.50
2019-06-08T16:25:29.909Z,21.50
2019-06-08T16:28:18.016Z,21.50
2019-06-08T16:31:06.529Z,21.40
2019-06-08T16:33:55.118Z,21.50
2019-06-08T16:36:43.733Z,21.40
2019-06-08T16:39:32.823Z,21.40
2019-06-08T16:42:22.503Z,21.40
2019-06-08T16:45:11.717Z,21.50
2019-06-08T16:47:59.899Z,21.50
2019-06-08T16:50:49.281Z,21.50
2019-06-08T16:53:38.006Z,21.50
2019-06-08T16:56:27.732Z,21.50
2019-06-08T16:59:16.385Z,21.50
2019-06-08T17:02:04.605Z,21.50
2019-06-08T17:04:53.150Z,21.50
2019-06-08T17:07:41.800Z,21.40
2019-06-08T17:10:30.590Z,21.50
2019-06-08T17:13:19.071Z,21.50
2019-06-08T17:16:07.860Z,21.40
2019-06-08T17:18:56.440Z,21.40
2019-06-08T17:21:45.702Z,21.40
2019-06-08T17:24:34.492Z,21.40
2019-06-08T17:27:26.625Z,21.40
2019-06-08T17:30:12.711Z,21.40
2019-06-08T17:33:01.310Z,21.30
2019-06-08T17:35:49.621Z,21.30
2019-06-08T17:38:39.504Z,21.30
2019-06-08T17:41:28.557Z,21.30
2019-06-08T17:44:17.233Z,21.30
2019-06-08T17:47:06.003Z,21.30
2019-06-08T17:49:54.581Z,21.30
2019-06-08T17:52:43.538Z,21.30
2019-06-08T17:55:33.085Z,21.20
2019-06-08T17:58:22.019Z,21.30
2019-06-08T18:01:11.131Z,21.20
2019-06-08T18:03:59.860Z,21.20
2019-06-08T18:06:48.515Z,21.20
2019-06-08T18:09:39.292Z,21.20
2019-06-08T18:12:27.158Z,21.20
2019-06-08T18:15:17.471Z,21.20
2019-06-08T18:18:08.601Z,21.20
2019-06-08T18:20:57.994Z,21.20
2019-06-08T18:23:48.179Z,21.20
2019-06-08T18:26:38.343Z,21.20
2019-06-08T18:29:27.725Z,21.10
2019-06-08T18:32:18.233Z,21.10
2019-06-08T18:35:07.861Z,21.10
2019-06-08T18:37:57.769Z,21.10
2019-06-08T18:40:48.322Z,21.10
2019-06-08T18:43:39.573Z,21.10
2019-06-08T18:46:27.454Z,21.10
2019-06-08T18:49:17.891Z,21.10
2019-06-08T18:52:07.990Z,21.10
2019-06-08T18:54:57.811Z,21.10
2019-06-08T18:57:48.478Z,21.10
2019-06-08T19:00:41.341Z,21.00
2019-06-08T19:03:28.315Z,21.00
2019-06-08T19:06:18.810Z,21.00
2019-06-08T19:09:12.146Z,21.00
2019-06-08T19:11:42.172Z,21.00
2019-06-08T19:14:32.138Z,21.00
2019-06-08T19:17:21.109Z,21.00
2019-06-08T19:20:10.421Z,21.00
2019-06-08T19:22:58.618Z,21.00
2019-06-08T19:25:49.159Z,21.00
2019-06-08T19:28:44.999Z,21.00
2019-06-08T19:31:27.724Z,21.00
2019-06-08T19:34:18.190Z,21.00
2019-06-08T19:37:07.975Z,21.00
2019-06-08T19:39:57.686Z,20.90
2019-06-08T19:42:56.533Z,21.00
2019-06-08T19:45:39.963Z,20.90
2019-06-08T19:48:31.001Z,20.90
2019-06-08T19:51:18.121Z,20.90
2019-06-08T19:54:07.113Z,20.90
2019-06-08T19:56:57.420Z,20.90
2019-06-08T19:59:45.938Z,20.90
2019-06-08T20:02:34.358Z,20.90
2019-06-08T20:05:23.003Z,20.90
2019-06-08T20:08:12.056Z,20.90
2019-06-08T20:11:00.287Z,20.90
2019-06-08T20:13:50.426Z,20.90
2019-06-08T20:16:40.440Z,20.80
2019-06-08T20:19:29.589Z,20.90
2019-06-08T20:22:18.458Z,20.80
2019-06-08T20:25:10.607Z,20.90
2019-06-08T20:27:58.971Z,20.80
2019-06-08T20:30:47.080Z,20.80
2019-06-08T20:33:37.674Z,20.80
2019-06-08T20:36:26.630Z,20.80
2019-06-08T20:39:15.932Z,20.80
2019-06-08T20:42:09.248Z,20.80
2019-06-08T20:44:57.628Z,20.80
2019-06-08T20:47:44.754Z,20.80
2019-06-08T20:50:33.356Z,20.80
2019-06-08T20:53:21.891Z,20.80
2019-06-08T20:56:10.074Z,20.80
2019-06-08T20:58:58.591Z,20.80
2019-06-08T21:01:48.848Z,20.70
2019-06-08T21:04:38.459Z,20.70
2019-06-08T21:07:28.089Z,20.70
2019-06-08T21:10:17.455Z,20.70
2019-06-08T21:12:50.850Z,20.70
2019-06-08T21:15:38.517Z,20.70
2019-06-08T21:18:27.606Z,20.70
2019-06-08T21:21:17.536Z,20.60
2019-06-08T21:24:07.910Z,20.60
2019-06-08T21:27:00.390Z,20.60
2019-06-08T21:29:51.641Z,20.60
2019-06-08T21:32:37.215Z,20.60
2019-06-08T21:35:26.289Z,20.60
2019-06-08T21:38:23.402Z,20.60
2019-06-08T21:41:04.743Z,20.50
2019-06-08T21:43:55.622Z,20.50
2019-06-08T21:46:43.711Z,20.50
2019-06-08T21:49:32.640Z,20.50
2019-06-08T21:52:21.369Z,20.50
2019-06-08T21:55:09.994Z,20.50
2019-06-08T21:58:01.369Z,20.50
2019-06-08T22:00:52.565Z,20.50
2019-06-08T22:03:42.062Z,20.50
2019-06-08T22:06:31.172Z,20.40
2019-06-08T22:09:19.652Z,20.40
2019-06-08T22:12:07.863Z,20.40
2019-06-08T22:14:59.023Z,20.40
2019-06-08T22:17:47.674Z,20.40
2019-06-08T22:20:38.296Z,20.40
2019-06-08T22:23:26.467Z,20.40
2019-06-08T22:26:17.627Z,20.30
2019-06-08T22:29:07.879Z,20.30
2019-06-08T22:31:55.490Z,20.30
2019-06-08T22:34:44.074Z,20.30
2019-06-08T22:37:32.490Z,20.30
2019-06-08T22:40:20.781Z,20.30
2019-06-08T22:43:09.394Z,20.30
2019-06-08T22:46:01.710Z,20.30
2019-06-08T22:48:49.125Z,20.30
2019-06-08T22:51:38.234Z,20.20
2019-06-08T22:54:27.609Z,20.20
2019-06-08T22:57:18.420Z,20.20
2019-06-08T23:00:16.552Z,20.20
2019-06-08T23:03:03.517Z,20.20
2019-06-08T23:05:49.604Z,20.20
2019-06-08T23:08:38.129Z,20.10
2019-06-08T23:11:28.397Z,20.10
2019-06-08T23:14:01.020Z,20.10
2019-06-08T23:16:48.986Z,20.10
2019-06-08T23:19:37.538Z,20.10
2019-06-08T23:22:27.348Z,20.10
2019-06-08T23:25:18.222Z,20.10
2019-06-08T23:28:09.496Z,20.10
2019-06-08T23:31:10.663Z,20.10
2019-06-08T23:33:48.182Z,20.10
2019-06-08T23:36:51.675Z,20.00
2019-06-08T23:39:28.410Z,20.00
2019-06-08T23:42:17.975Z,20.00
2019-06-08T23:45:10.644Z,20.00
2019-06-08T23:48:01.039Z,20.00
2019-06-08T23:50:49.689Z,20.00
2019-06-08T23:53:38.239Z,20.00
2019-06-08T23:56:27.763Z,20.00
2019-06-08T23:59:17.800Z,19.90
